sensor_id;sensor_type;location;lat;lon;timestamp;P1;durP1;ratioP1;P2;durP2;ratioP2
73104;SDS011;61296;50.526;30.792;2023-02-01T00:06:58;11.02;;;6.10;;
73104;SDS011;61296;50.526;30.792;2023-02-01T00:22:19;14.40;;;5.95;;
73104;SDS011;61296;50.526;30.792;2023-02-01T00:37:39;14.15;;;6.47;;
73104;SDS011;61296;50.526;30.792;2023-02-01T00:52:59;13.43;;;6.00;;
73104;SDS011;61296;50.526;30.792;2023-02-01T01:08:19;16.40;;;6.25;;
73104;SDS011;61296;50.526;30.792;2023-02-01T01:23:38;14.35;;;5.85;;
73104;SDS011;61296;50.526;30.792;2023-02-01T01:38:58;13.98;;;5.45;;
73104;SDS011;61296;50.526;30.792;2023-02-01T01:54:21;15.52;;;5.85;;
73104;SDS011;61296;50.526;30.792;2023-02-01T02:09:53;15.43;;;5.72;;
73104;SDS011;61296;50.526;30.792;2023-02-01T02:40:56;15.50;;;5.57;;
73104;SDS011;61296;50.526;30.792;2023-02-01T02:56:24;15.73;;;6.35;;
73104;SDS011;61296;50.526;30.792;2023-02-01T03:12:07;17.73;;;7.07;;
73104;SDS011;61296;50.526;30.792;2023-02-01T03:27:55;14.57;;;7.50;;
73104;SDS011;61296;50.526;30.792;2023-02-01T03:43:27;22.30;;;9.98;;
73104;SDS011;61296;50.526;30.792;2023-02-01T03:58:52;22.73;;;10.30;;
73104;SDS011;61296;50.526;30.792;2023-02-01T04:14:20;24.55;;;12.00;;
73104;SDS011;61296;50.526;30.792;2023-02-01T04:29:40;27.50;;;12.77;;
73104;SDS011;61296;50.526;30.792;2023-02-01T04:45:00;25.75;;;12.52;;
73104;SDS011;61296;50.526;30.792;2023-02-01T05:00:19;34.88;;;13.13;;
73104;SDS011;61296;50.526;30.792;2023-02-01T05:15:39;35.58;;;15.20;;
73104;SDS011;61296;50.526;30.792;2023-02-01T05:31:00;32.97;;;13.55;;
73104;SDS011;61296;50.526;30.792;2023-02-01T05:46:19;37.53;;;15.65;;
73104;SDS011;61296;50.526;30.792;2023-02-01T09:07:49;24.88;;;10.85;;
73104;SDS011;61296;50.526;30.792;2023-02-01T09:23:09;22.45;;;7.88;;
73104;SDS011;61296;50.526;30.792;2023-02-01T09:38:29;16.60;;;7.60;;
73104;SDS011;61296;50.526;30.792;2023-02-01T09:53:55;14.93;;;5.43;;
73104;SDS011;61296;50.526;30.792;2023-02-01T10:09:31;15.98;;;6.70;;
73104;SDS011;61296;50.526;30.792;2023-02-01T10:25:14;16.10;;;6.38;;
73104;SDS011;61296;50.526;30.792;2023-02-01T10:40:42;18.48;;;6.63;;
73104;SDS011;61296;50.526;30.792;2023-02-01T10:56:11;17.17;;;5.97;;
73104;SDS011;61296;50.526;30.792;2023-02-01T11:11:32;17.13;;;5.50;;
73104;SDS011;61296;50.526;30.792;2023-02-01T11:26:54;14.68;;;5.78;;
73104;SDS011;61296;50.526;30.792;2023-02-01T11:42:16;15.02;;;6.50;;
73104;SDS011;61296;50.526;30.792;2023-02-01T11:57:46;12.43;;;5.70;;
73104;SDS011;61296;50.526;30.792;2023-02-01T13:00:21;16.93;;;6.73;;
73104;SDS011;61296;50.526;30.792;2023-02-01T13:32:02;15.43;;;7.68;;
73104;SDS011;61296;50.526;30.792;2023-02-01T18:11:45;53.72;;;19.60;;
73104;SDS011;61296;50.526;30.792;2023-02-01T18:27:07;43.05;;;16.52;;
73104;SDS011;61296;50.526;30.792;2023-02-01T18:42:27;47.70;;;17.33;;
73104;SDS011;61296;50.526;30.792;2023-02-01T18:57:46;45.45;;;17.08;;
73104;SDS011;61296;50.526;30.792;2023-02-01T19:13:06;42.28;;;14.80;;
73104;SDS011;61296;50.526;30.792;2023-02-01T19:28:28;37.17;;;13.82;;
73104;SDS011;61296;50.526;30.792;2023-02-01T19:43:47;38.25;;;12.82;;
73104;SDS011;61296;50.526;30.792;2023-02-01T19:59:06;35.13;;;12.25;;
73104;SDS011;61296;50.526;30.792;2023-02-01T20:14:26;36.40;;;12.27;;
73104;SDS011;61296;50.526;30.792;2023-02-01T20:29:46;34.95;;;12.20;;
73104;SDS011;61296;50.526;30.792;2023-02-01T20:45:06;25.48;;;10.50;;
73104;SDS011;61296;50.526;30.792;2023-02-01T21:00:26;31.20;;;10.80;;
73104;SDS011;61296;50.526;30.792;2023-02-01T21:15:45;27.88;;;10.95;;
73104;SDS011;61296;50.526;30.792;2023-02-01T21:31:07;30.50;;;11.05;;
73104;SDS011;61296;50.526;30.792;2023-02-01T21:46:27;51.80;;;18.17;;
73104;SDS011;61296;50.526;30.792;2023-02-01T22:01:46;22.45;;;9.60;;
73104;SDS011;61296;50.526;30.792;2023-02-01T22:17:05;25.20;;;10.20;;
73104;SDS011;61296;50.526;30.792;2023-02-01T22:32:25;25.45;;;9.43;;
73104;SDS011;61296;50.526;30.792;2023-02-01T22:47:44;27.67;;;9.55;;
73104;SDS011;61296;50.526;30.792;2023-02-01T23:03:07;22.75;;;8.98;;
73104;SDS011;61296;50.526;30.792;2023-02-01T23:18:27;26.55;;;9.13;;
73104;SDS011;61296;50.526;30.792;2023-02-01T23:33:46;22.85;;;8.90;;
73104;SDS011;61296;50.526;30.792;2023-02-01T23:49:07;24.05;;;9.15;;
